Henry Post Army Air Field (Fort Sill) Fort Sill US
ICAO: KFSI
IATA: FSI
Category: Medium
Scheduled Services: No

Elevation: 1189 ft
TransAlt. 18000 ft.

Airport Communications:
FORT SILL APP/DEP:118.6
ATIS:135.425
CLNC DEL:121.7
POST GND:121.7
DUNCAN SCTR:118.6
PMSV METRO:37.52
PTD:123.05
POST TWR:124.95

KFSI Zoom In..

If Map Doesn't Load, Click Here

Runways:

(A) RW 17 length 5001 ft width 150 ft
---- / hdg 173

(B) RW 35 length 5001 ft width 150 ft
---- / hdg 353

Location; KFSI
Day. 23 / Time. 21.56 Zulu
* Altimeter: 29.92
* Temperature: 23° c. 73.4°f.
* Wind from: 050° Speed 07 kn.
Dewpoint: 19° c.
Visibility: 10 Statute Miles.
Clouds: Overcast 1900 ft.

KFSI 232156Z AUTO 05007KT 10SM OVC019 23/19 A2992 RMK AO2 SLP126 T02280193


Wind From 050°
Speed 07 kn.

 
 
jpsmedia.com for Web Design worldairports.se 2018   terms of use